sensor_id;sensor_type;location;lat;lon;timestamp;P1;durP1;ratioP1;P2;durP2;ratioP2
66143;SDS011;52947;50.842;6.084;2023-04-03T00:00:47;5.93;;;2.55;;
66143;SDS011;52947;50.842;6.084;2023-04-03T00:03:15;7.03;;;3.72;;
66143;SDS011;52947;50.842;6.084;2023-04-03T00:05:45;9.13;;;3.00;;
66143;SDS011;52947;50.842;6.084;2023-04-03T00:08:13;6.95;;;3.33;;
66143;SDS011;52947;50.842;6.084;2023-04-03T00:10:41;5.75;;;2.80;;
66143;SDS011;52947;50.842;6.084;2023-04-03T00:13:09;6.05;;;2.80;;
66143;SDS011;52947;50.842;6.084;2023-04-03T00:15:38;4.67;;;3.30;;
66143;SDS011;52947;50.842;6.084;2023-04-03T00:18:07;10.68;;;3.00;;
66143;SDS011;52947;50.842;6.084;2023-04-03T00:20:35;8.98;;;3.03;;
66143;SDS011;52947;50.842;6.084;2023-04-03T00:23:05;5.50;;;3.07;;
66143;SDS011;52947;50.842;6.084;2023-04-03T00:25:33;6.97;;;2.28;;
66143;SDS011;52947;50.842;6.084;2023-04-03T00:28:01;8.10;;;2.78;;
66143;SDS011;52947;50.842;6.084;2023-04-03T00:30:29;5.47;;;2.47;;
66143;SDS011;52947;50.842;6.084;2023-04-03T00:32:58;6.20;;;2.65;;
66143;SDS011;52947;50.842;6.084;2023-04-03T00:35:27;6.72;;;2.70;;
66143;SDS011;52947;50.842;6.084;2023-04-03T00:37:55;4.57;;;2.50;;
66143;SDS011;52947;50.842;6.084;2023-04-03T00:40:26;4.13;;;2.55;;
66143;SDS011;52947;50.842;6.084;2023-04-03T00:42:55;3.90;;;2.53;;
66143;SDS011;52947;50.842;6.084;2023-04-03T00:45:34;10.13;;;2.95;;
66143;SDS011;52947;50.842;6.084;2023-04-03T00:48:05;4.57;;;2.42;;
66143;SDS011;52947;50.842;6.084;2023-04-03T00:50:35;5.20;;;2.92;;
66143;SDS011;52947;50.842;6.084;2023-04-03T00:53:05;7.47;;;2.92;;
66143;SDS011;52947;50.842;6.084;2023-04-03T00:55:36;6.05;;;2.83;;
66143;SDS011;52947;50.842;6.084;2023-04-03T00:58:05;3.75;;;2.63;;
66143;SDS011;52947;50.842;6.084;2023-04-03T01:00:35;4.85;;;2.80;;
66143;SDS011;52947;50.842;6.084;2023-04-03T01:03:05;7.60;;;3.15;;
66143;SDS011;52947;50.842;6.084;2023-04-03T01:08:02;7.22;;;3.00;;
66143;SDS011;52947;50.842;6.084;2023-04-03T01:10:32;9.38;;;2.92;;
66143;SDS011;52947;50.842;6.084;2023-04-03T01:13:02;6.13;;;2.97;;
66143;SDS011;52947;50.842;6.084;2023-04-03T01:15:46;7.15;;;2.75;;
66143;SDS011;52947;50.842;6.084;2023-04-03T01:18:14;7.47;;;2.40;;
66143;SDS011;52947;50.842;6.084;2023-04-03T01:24:17;7.15;;;2.50;;
66143;SDS011;52947;50.842;6.084;2023-04-03T01:26:53;5.05;;;2.53;;
66143;SDS011;52947;50.842;6.084;2023-04-03T01:29:23;6.82;;;2.78;;
66143;SDS011;52947;50.842;6.084;2023-04-03T01:31:53;3.92;;;2.33;;
66143;SDS011;52947;50.842;6.084;2023-04-03T01:34:23;6.22;;;2.72;;
66143;SDS011;52947;50.842;6.084;2023-04-03T01:36:51;4.75;;;2.75;;
66143;SDS011;52947;50.842;6.084;2023-04-03T01:39:21;6.55;;;2.47;;
66143;SDS011;52947;50.842;6.084;2023-04-03T01:41:49;8.25;;;2.60;;
66143;SDS011;52947;50.842;6.084;2023-04-03T01:44:38;5.13;;;2.88;;
66143;SDS011;52947;50.842;6.084;2023-04-03T01:47:08;4.07;;;2.53;;
66143;SDS011;52947;50.842;6.084;2023-04-03T01:49:38;8.05;;;2.63;;
66143;SDS011;52947;50.842;6.084;2023-04-03T01:52:06;5.85;;;3.00;;
66143;SDS011;52947;50.842;6.084;2023-04-03T01:54:34;7.38;;;2.72;;
66143;SDS011;52947;50.842;6.084;2023-04-03T01:57:02;7.75;;;3.10;;
66143;SDS011;52947;50.842;6.084;2023-04-03T01:59:30;5.13;;;3.20;;
66143;SDS011;52947;50.842;6.084;2023-04-03T02:01:58;6.05;;;3.08;;
66143;SDS011;52947;50.842;6.084;2023-04-03T02:04:27;5.90;;;2.95;;
66143;SDS011;52947;50.842;6.084;2023-04-03T02:06:55;7.50;;;2.67;;
66143;SDS011;52947;50.842;6.084;2023-04-03T02:09:24;7.60;;;3.30;;
66143;SDS011;52947;50.842;6.084;2023-04-03T02:11:52;5.63;;;3.10;;
66143;SDS011;52947;50.842;6.084;2023-04-03T02:14:20;6.25;;;3.13;;
66143;SDS011;52947;50.842;6.084;2023-04-03T02:16:50;5.60;;;3.10;;
66143;SDS011;52947;50.842;6.084;2023-04-03T02:19:21;12.05;;;3.55;;
66143;SDS011;52947;50.842;6.084;2023-04-03T02:21:50;5.53;;;3.10;;
66143;SDS011;52947;50.842;6.084;2023-04-03T02:24:18;7.75;;;3.28;;
66143;SDS011;52947;50.842;6.084;2023-04-03T02:26:46;4.80;;;3.10;;
66143;SDS011;52947;50.842;6.084;2023-04-03T02:29:14;11.38;;;3.05;;
66143;SDS011;52947;50.842;6.084;2023-04-03T02:31:42;4.72;;;3.15;;
66143;SDS011;52947;50.842;6.084;2023-04-03T02:34:10;9.68;;;3.47;;
66143;SDS011;52947;50.842;6.084;2023-04-03T02:36:39;7.82;;;2.20;;
66143;SDS011;52947;50.842;6.084;2023-04-03T02:39:10;4.03;;;2.67;;
66143;SDS011;52947;50.842;6.084;2023-04-03T02:44:11;6.63;;;3.40;;
66143;SDS011;52947;50.842;6.084;2023-04-03T02:46:39;7.72;;;2.95;;
66143;SDS011;52947;50.842;6.084;2023-04-03T02:49:07;5.20;;;2.85;;
66143;SDS011;52947;50.842;6.084;2023-04-03T02:51:36;7.80;;;3.35;;
66143;SDS011;52947;50.842;6.084;2023-04-03T02:54:04;10.25;;;3.20;;
66143;SDS011;52947;50.842;6.084;2023-04-03T02:56:35;10.65;;;4.50;;
66143;SDS011;52947;50.842;6.084;2023-04-03T02:59:04;8.18;;;3.40;;
66143;SDS011;52947;50.842;6.084;2023-04-03T03:01:34;6.50;;;3.53;;
66143;SDS011;52947;50.842;6.084;2023-04-03T03:04:03;6.78;;;4.10;;
66143;SDS011;52947;50.842;6.084;2023-04-03T03:06:30;8.52;;;4.50;;
66143;SDS011;52947;50.842;6.084;2023-04-03T03:08:58;8.15;;;4.28;;
66143;SDS011;52947;50.842;6.084;2023-04-03T03:11:26;8.13;;;3.97;;
66143;SDS011;52947;50.842;6.084;2023-04-03T03:13:56;9.73;;;4.10;;
66143;SDS011;52947;50.842;6.084;2023-04-03T03:16:24;7.90;;;4.05;;
66143;SDS011;52947;50.842;6.084;2023-04-03T03:18:52;7.65;;;4.00;;
66143;SDS011;52947;50.842;6.084;2023-04-03T03:21:23;8.50;;;4.68;;
66143;SDS011;52947;50.842;6.084;2023-04-03T03:23:51;10.38;;;4.03;;
66143;SDS011;52947;50.842;6.084;2023-04-03T03:26:19;9.95;;;4.82;;
66143;SDS011;52947;50.842;6.084;2023-04-03T03:28:47;7.30;;;4.03;;
66143;SDS011;52947;50.842;6.084;2023-04-03T03:31:16;9.73;;;4.47;;
66143;SDS011;52947;50.842;6.084;2023-04-03T03:36:12;10.02;;;5.05;;
66143;SDS011;52947;50.842;6.084;2023-04-03T03:38:40;7.72;;;4.43;;
66143;SDS011;52947;50.842;6.084;2023-04-03T03:41:08;10.13;;;4.82;;
66143;SDS011;52947;50.842;6.084;2023-04-03T03:43:37;7.80;;;5.80;;
66143;SDS011;52947;50.842;6.084;2023-04-03T03:46:06;9.90;;;5.47;;
66143;SDS011;52947;50.842;6.084;2023-04-03T03:48:35;8.45;;;5.50;;
66143;SDS011;52947;50.842;6.084;2023-04-03T03:51:03;12.07;;;5.25;;
66143;SDS011;52947;50.842;6.084;2023-04-03T03:53:35;5.45;;;4.03;;
66143;SDS011;52947;50.842;6.084;2023-04-03T03:56:06;8.73;;;4.43;;
66143;SDS011;52947;50.842;6.084;2023-04-03T03:58:36;10.27;;;4.63;;
66143;SDS011;52947;50.842;6.084;2023-04-03T04:01:04;9.40;;;5.63;;
66143;SDS011;52947;50.842;6.084;2023-04-03T04:03:40;12.90;;;6.00;;
66143;SDS011;52947;50.842;6.084;2023-04-03T04:06:11;10.95;;;5.55;;
66143;SDS011;52947;50.842;6.084;2023-04-03T04:08:39;11.07;;;5.68;;
66143;SDS011;52947;50.842;6.084;2023-04-03T04:11:09;11.68;;;6.53;;
66143;SDS011;52947;50.842;6.084;2023-04-03T04:13:38;14.38;;;6.63;;
66143;SDS011;52947;50.842;6.084;2023-04-03T04:16:08;15.00;;;8.95;;
66143;SDS011;52947;50.842;6.084;2023-04-03T04:18:37;18.27;;;8.63;;
66143;SDS011;52947;50.842;6.084;2023-04-03T04:21:07;13.68;;;8.68;;
66143;SDS011;52947;50.842;6.084;2023-04-03T04:23:37;22.85;;;12.93;;
66143;SDS011;52947;50.842;6.084;2023-04-03T04:26:05;26.05;;;13.63;;
66143;SDS011;52947;50.842;6.084;2023-04-03T04:28:36;17.17;;;10.73;;
66143;SDS011;52947;50.842;6.084;2023-04-03T04:31:05;20.17;;;10.25;;
66143;SDS011;52947;50.842;6.084;2023-04-03T04:33:33;19.98;;;10.13;;
66143;SDS011;52947;50.842;6.084;2023-04-03T04:36:03;22.58;;;13.63;;
66143;SDS011;52947;50.842;6.084;2023-04-03T04:38:33;20.30;;;12.80;;
66143;SDS011;52947;50.842;6.084;2023-04-03T04:41:01;28.02;;;13.32;;
66143;SDS011;52947;50.842;6.084;2023-04-03T04:43:29;19.58;;;11.82;;
66143;SDS011;52947;50.842;6.084;2023-04-03T04:46:01;20.05;;;12.52;;
66143;SDS011;52947;50.842;6.084;2023-04-03T04:48:35;12.55;;;8.80;;
66143;SDS011;52947;50.842;6.084;2023-04-03T04:53:35;18.35;;;10.52;;
66143;SDS011;52947;50.842;6.084;2023-04-03T04:56:04;17.60;;;11.40;;
66143;SDS011;52947;50.842;6.084;2023-04-03T04:58:34;19.73;;;10.85;;
66143;SDS011;52947;50.842;6.084;2023-04-03T05:01:03;17.75;;;10.98;;
66143;SDS011;52947;50.842;6.084;2023-04-03T05:03:36;20.88;;;10.90;;
66143;SDS011;52947;50.842;6.084;2023-04-03T05:06:04;17.30;;;9.57;;
66143;SDS011;52947;50.842;6.084;2023-04-03T05:08:35;13.52;;;9.32;;
66143;SDS011;52947;50.842;6.084;2023-04-03T05:11:04;13.73;;;8.63;;
66143;SDS011;52947;50.842;6.084;2023-04-03T05:13:33;12.20;;;8.30;;
66143;SDS011;52947;50.842;6.084;2023-04-03T05:16:01;13.35;;;7.65;;
66143;SDS011;52947;50.842;6.084;2023-04-03T05:18:29;13.05;;;7.93;;
66143;SDS011;52947;50.842;6.084;2023-04-03T05:21:01;11.55;;;7.40;;
66143;SDS011;52947;50.842;6.084;2023-04-03T05:23:30;14.98;;;8.57;;
66143;SDS011;52947;50.842;6.084;2023-04-03T05:26:02;13.07;;;7.38;;
66143;SDS011;52947;50.842;6.084;2023-04-03T05:28:30;13.98;;;7.70;;
66143;SDS011;52947;50.842;6.084;2023-04-03T05:30:58;12.90;;;7.32;;
66143;SDS011;52947;50.842;6.084;2023-04-03T05:33:33;14.32;;;7.50;;
66143;SDS011;52947;50.842;6.084;2023-04-03T05:36:04;13.65;;;7.97;;
66143;SDS011;52947;50.842;6.084;2023-04-03T05:38:37;13.18;;;8.77;;
66143;SDS011;52947;50.842;6.084;2023-04-03T05:41:06;17.55;;;9.02;;
66143;SDS011;52947;50.842;6.084;2023-04-03T05:43:35;13.18;;;8.73;;
66143;SDS011;52947;50.842;6.084;2023-04-03T05:46:08;15.02;;;8.20;;
66143;SDS011;52947;50.842;6.084;2023-04-03T05:48:38;12.10;;;6.68;;
66143;SDS011;52947;50.842;6.084;2023-04-03T05:51:09;10.65;;;5.68;;
66143;SDS011;52947;50.842;6.084;2023-04-03T05:53:43;8.73;;;5.75;;
66143;SDS011;52947;50.842;6.084;2023-04-03T05:56:13;9.07;;;5.00;;
66143;SDS011;52947;50.842;6.084;2023-04-03T05:58:42;10.65;;;4.57;;
66143;SDS011;52947;50.842;6.084;2023-04-03T06:01:10;10.90;;;4.40;;
66143;SDS011;52947;50.842;6.084;2023-04-03T06:03:39;5.80;;;3.80;;
66143;SDS011;52947;50.842;6.084;2023-04-03T06:08:39;9.38;;;3.58;;
66143;SDS011;52947;50.842;6.084;2023-04-03T06:11:07;5.47;;;3.65;;
66143;SDS011;52947;50.842;6.084;2023-04-03T06:13:37;6.20;;;3.80;;
66143;SDS011;52947;50.842;6.084;2023-04-03T06:16:05;8.20;;;3.72;;
66143;SDS011;52947;50.842;6.084;2023-04-03T06:18:35;7.47;;;3.83;;
66143;SDS011;52947;50.842;6.084;2023-04-03T06:21:03;7.72;;;3.55;;
66143;SDS011;52947;50.842;6.084;2023-04-03T06:23:34;7.00;;;3.47;;
66143;SDS011;52947;50.842;6.084;2023-04-03T06:26:02;6.70;;;2.70;;
66143;SDS011;52947;50.842;6.084;2023-04-03T06:28:31;9.32;;;3.03;;
66143;SDS011;52947;50.842;6.084;2023-04-03T06:31:01;5.93;;;3.08;;
66143;SDS011;52947;50.842;6.084;2023-04-03T06:35:57;8.10;;;3.10;;
66143;SDS011;52947;50.842;6.084;2023-04-03T06:40:53;6.22;;;2.92;;
66143;SDS011;52947;50.842;6.084;2023-04-03T06:43:22;7.25;;;3.10;;
66143;SDS011;52947;50.842;6.084;2023-04-03T06:45:50;5.37;;;2.73;;
66143;SDS011;52947;50.842;6.084;2023-04-03T06:48:20;5.90;;;2.75;;
66143;SDS011;52947;50.842;6.084;2023-04-03T06:50:48;7.20;;;2.75;;
66143;SDS011;52947;50.842;6.084;2023-04-03T06:53:16;4.63;;;2.80;;
66143;SDS011;52947;50.842;6.084;2023-04-03T06:55:44;5.93;;;2.93;;
66143;SDS011;52947;50.842;6.084;2023-04-03T06:58:13;6.30;;;3.45;;
66143;SDS011;52947;50.842;6.084;2023-04-03T07:00:44;8.40;;;3.58;;
66143;SDS011;52947;50.842;6.084;2023-04-03T07:03:13;7.65;;;2.83;;
66143;SDS011;52947;50.842;6.084;2023-04-03T07:05:44;8.00;;;3.65;;
66143;SDS011;52947;50.842;6.084;2023-04-03T07:08:12;10.10;;;2.85;;
66143;SDS011;52947;50.842;6.084;2023-04-03T07:10:40;6.22;;;2.63;;
66143;SDS011;52947;50.842;6.084;2023-04-03T07:13:08;5.57;;;2.83;;
66143;SDS011;52947;50.842;6.084;2023-04-03T07:15:35;4.20;;;2.40;;
66143;SDS011;52947;50.842;6.084;2023-04-03T07:18:04;5.73;;;2.80;;
66143;SDS011;52947;50.842;6.084;2023-04-03T07:20:32;4.97;;;2.87;;
66143;SDS011;52947;50.842;6.084;2023-04-03T07:23:02;6.43;;;2.83;;
66143;SDS011;52947;50.842;6.084;2023-04-03T07:25:29;6.55;;;2.50;;
66143;SDS011;52947;50.842;6.084;2023-04-03T07:28:00;6.57;;;2.40;;
66143;SDS011;52947;50.842;6.084;2023-04-03T07:30:28;6.85;;;2.67;;
66143;SDS011;52947;50.842;6.084;2023-04-03T07:32:56;4.85;;;2.45;;
66143;SDS011;52947;50.842;6.084;2023-04-03T07:35:23;6.18;;;2.10;;
66143;SDS011;52947;50.842;6.084;2023-04-03T07:37:52;5.85;;;2.33;;
66143;SDS011;52947;50.842;6.084;2023-04-03T07:40:21;5.13;;;2.10;;
66143;SDS011;52947;50.842;6.084;2023-04-03T07:42:49;7.88;;;2.30;;
66143;SDS011;52947;50.842;6.084;2023-04-03T07:45:17;5.43;;;2.20;;
66143;SDS011;52947;50.842;6.084;2023-04-03T07:47:45;7.47;;;2.58;;
66143;SDS011;52947;50.842;6.084;2023-04-03T07:50:14;6.30;;;2.83;;
66143;SDS011;52947;50.842;6.084;2023-04-03T07:52:42;5.17;;;2.50;;
66143;SDS011;52947;50.842;6.084;2023-04-03T07:55:10;4.75;;;2.17;;
66143;SDS011;52947;50.842;6.084;2023-04-03T07:57:40;6.82;;;2.47;;
66143;SDS011;52947;50.842;6.084;2023-04-03T08:00:09;3.30;;;1.92;;
66143;SDS011;52947;50.842;6.084;2023-04-03T08:02:39;7.55;;;2.35;;
66143;SDS011;52947;50.842;6.084;2023-04-03T08:05:08;4.68;;;2.30;;
66143;SDS011;52947;50.842;6.084;2023-04-03T08:07:36;7.72;;;2.65;;
66143;SDS011;52947;50.842;6.084;2023-04-03T08:10:05;4.70;;;2.20;;
66143;SDS011;52947;50.842;6.084;2023-04-03T08:12:33;7.93;;;2.53;;
66143;SDS011;52947;50.842;6.084;2023-04-03T08:15:05;3.25;;;1.90;;
66143;SDS011;52947;50.842;6.084;2023-04-03T08:17:34;4.95;;;2.08;;
66143;SDS011;52947;50.842;6.084;2023-04-03T08:20:02;7.13;;;2.13;;
66143;SDS011;52947;50.842;6.084;2023-04-03T08:22:31;6.30;;;2.20;;
66143;SDS011;52947;50.842;6.084;2023-04-03T08:24:59;3.78;;;2.08;;
66143;SDS011;52947;50.842;6.084;2023-04-03T08:27:27;6.00;;;1.95;;
66143;SDS011;52947;50.842;6.084;2023-04-03T08:29:55;4.70;;;2.25;;
66143;SDS011;52947;50.842;6.084;2023-04-03T08:32:25;4.80;;;2.03;;
66143;SDS011;52947;50.842;6.084;2023-04-03T08:34:53;5.05;;;2.20;;
66143;SDS011;52947;50.842;6.084;2023-04-03T08:37:21;4.55;;;2.33;;
66143;SDS011;52947;50.842;6.084;2023-04-03T08:39:49;5.13;;;2.22;;
66143;SDS011;52947;50.842;6.084;2023-04-03T08:42:19;6.45;;;2.20;;
66143;SDS011;52947;50.842;6.084;2023-04-03T08:45:05;4.47;;;2.10;;
66143;SDS011;52947;50.842;6.084;2023-04-03T08:47:42;4.13;;;2.10;;
66143;SDS011;52947;50.842;6.084;2023-04-03T08:50:19;4.50;;;2.13;;
66143;SDS011;52947;50.842;6.084;2023-04-03T08:52:48;5.03;;;2.20;;
66143;SDS011;52947;50.842;6.084;2023-04-03T08:55:22;4.25;;;2.00;;
66143;SDS011;52947;50.842;6.084;2023-04-03T08:57:53;5.18;;;2.50;;
66143;SDS011;52947;50.842;6.084;2023-04-03T09:00:28;8.35;;;2.47;;
66143;SDS011;52947;50.842;6.084;2023-04-03T09:03:03;4.72;;;2.30;;
66143;SDS011;52947;50.842;6.084;2023-04-03T09:05:34;5.38;;;2.63;;
66143;SDS011;52947;50.842;6.084;2023-04-03T09:08:12;5.63;;;2.50;;
66143;SDS011;52947;50.842;6.084;2023-04-03T09:10:46;5.20;;;2.80;;
66143;SDS011;52947;50.842;6.084;2023-04-03T09:13:18;5.13;;;2.40;;
66143;SDS011;52947;50.842;6.084;2023-04-03T09:15:52;6.07;;;2.17;;
66143;SDS011;52947;50.842;6.084;2023-04-03T09:18:25;5.10;;;2.13;;
66143;SDS011;52947;50.842;6.084;2023-04-03T09:21:00;4.57;;;2.20;;
66143;SDS011;52947;50.842;6.084;2023-04-03T09:23:36;5.15;;;1.88;;
66143;SDS011;52947;50.842;6.084;2023-04-03T09:26:11;5.03;;;2.20;;
66143;SDS011;52947;50.842;6.084;2023-04-03T09:28:44;3.45;;;1.73;;
66143;SDS011;52947;50.842;6.084;2023-04-03T09:31:18;5.03;;;2.55;;
66143;SDS011;52947;50.842;6.084;2023-04-03T09:33:50;7.18;;;1.90;;
66143;SDS011;52947;50.842;6.084;2023-04-03T09:36:37;5.20;;;2.30;;
66143;SDS011;52947;50.842;6.084;2023-04-03T09:39:09;5.03;;;2.22;;
66143;SDS011;52947;50.842;6.084;2023-04-03T09:41:39;6.40;;;2.90;;
66143;SDS011;52947;50.842;6.084;2023-04-03T09:44:21;4.38;;;2.10;;
66143;SDS011;52947;50.842;6.084;2023-04-03T09:46:49;7.07;;;2.10;;
66143;SDS011;52947;50.842;6.084;2023-04-03T09:49:19;7.13;;;2.40;;
66143;SDS011;52947;50.842;6.084;2023-04-03T09:51:47;3.78;;;1.90;;
66143;SDS011;52947;50.842;6.084;2023-04-03T09:54:26;3.13;;;1.83;;
66143;SDS011;52947;50.842;6.084;2023-04-03T09:57:08;6.93;;;2.63;;
66143;SDS011;52947;50.842;6.084;2023-04-03T09:59:40;4.85;;;2.22;;
66143;SDS011;52947;50.842;6.084;2023-04-03T10:02:22;5.28;;;2.80;;
66143;SDS011;52947;50.842;6.084;2023-04-03T10:04:59;6.07;;;3.33;;
66143;SDS011;52947;50.842;6.084;2023-04-03T10:07:32;4.82;;;2.30;;
66143;SDS011;52947;50.842;6.084;2023-04-03T10:10:14;3.58;;;1.73;;
66143;SDS011;52947;50.842;6.084;2023-04-03T10:12:46;4.20;;;1.88;;
66143;SDS011;52947;50.842;6.084;2023-04-03T10:15:15;4.97;;;1.92;;
66143;SDS011;52947;50.842;6.084;2023-04-03T10:17:51;5.50;;;1.80;;
66143;SDS011;52947;50.842;6.084;2023-04-03T10:20:29;6.65;;;2.03;;
66143;SDS011;52947;50.842;6.084;2023-04-03T10:23:11;6.95;;;2.30;;
66143;SDS011;52947;50.842;6.084;2023-04-03T10:25:48;2.65;;;1.70;;
66143;SDS011;52947;50.842;6.084;2023-04-03T10:28:27;2.58;;;1.65;;
66143;SDS011;52947;50.842;6.084;2023-04-03T10:31:00;5.22;;;2.00;;
66143;SDS011;52947;50.842;6.084;2023-04-03T10:33:45;5.82;;;1.70;;
66143;SDS011;52947;50.842;6.084;2023-04-03T10:36:25;7.72;;;1.67;;
66143;SDS011;52947;50.842;6.084;2023-04-03T10:39:02;3.33;;;1.75;;
66143;SDS011;52947;50.842;6.084;2023-04-03T10:41:42;2.75;;;1.60;;
66143;SDS011;52947;50.842;6.084;2023-04-03T10:44:24;2.53;;;1.52;;
66143;SDS011;52947;50.842;6.084;2023-04-03T10:47:04;3.50;;;1.48;;
66143;SDS011;52947;50.842;6.084;2023-04-03T10:49:41;3.35;;;1.40;;
66143;SDS011;52947;50.842;6.084;2023-04-03T10:52:28;4.68;;;2.00;;
66143;SDS011;52947;50.842;6.084;2023-04-03T10:55:09;3.55;;;1.92;;
66143;SDS011;52947;50.842;6.084;2023-04-03T10:57:50;3.70;;;1.70;;
66143;SDS011;52947;50.842;6.084;2023-04-03T11:00:21;4.30;;;1.65;;
66143;SDS011;52947;50.842;6.084;2023-04-03T11:03:05;5.28;;;1.60;;
66143;SDS011;52947;50.842;6.084;2023-04-03T11:05:40;3.63;;;1.70;;
66143;SDS011;52947;50.842;6.084;2023-04-03T11:08:14;3.92;;;1.60;;
66143;SDS011;52947;50.842;6.084;2023-04-03T11:10:53;8.55;;;2.00;;
66143;SDS011;52947;50.842;6.084;2023-04-03T11:13:24;3.13;;;1.60;;
66143;SDS011;52947;50.842;6.084;2023-04-03T11:15:58;4.30;;;1.63;;
66143;SDS011;52947;50.842;6.084;2023-04-03T11:18:27;4.28;;;1.45;;
66143;SDS011;52947;50.842;6.084;2023-04-03T11:21:01;6.10;;;1.77;;
66143;SDS011;52947;50.842;6.084;2023-04-03T11:23:35;3.78;;;1.65;;
66143;SDS011;52947;50.842;6.084;2023-04-03T11:26:15;6.35;;;1.70;;
66143;SDS011;52947;50.842;6.084;2023-04-03T11:28:51;4.22;;;1.42;;
66143;SDS011;52947;50.842;6.084;2023-04-03T11:31:26;4.13;;;1.70;;
66143;SDS011;52947;50.842;6.084;2023-04-03T11:34:06;4.65;;;1.58;;
66143;SDS011;52947;50.842;6.084;2023-04-03T11:36:45;1.70;;;1.40;;
66143;SDS011;52947;50.842;6.084;2023-04-03T11:39:19;6.43;;;1.70;;
66143;SDS011;52947;50.842;6.084;2023-04-03T11:41:51;3.08;;;1.55;;
66143;SDS011;52947;50.842;6.084;2023-04-03T11:44:36;4.03;;;1.60;;
66143;SDS011;52947;50.842;6.084;2023-04-03T11:47:05;3.33;;;1.75;;
66143;SDS011;52947;50.842;6.084;2023-04-03T11:55:45;3.88;;;1.73;;
66143;SDS011;52947;50.842;6.084;2023-04-03T11:58:21;3.42;;;1.55;;
66143;SDS011;52947;50.842;6.084;2023-04-03T12:00:56;2.75;;;1.45;;
66143;SDS011;52947;50.842;6.084;2023-04-03T12:03:29;2.47;;;1.63;;
66143;SDS011;52947;50.842;6.084;2023-04-03T12:09:25;7.60;;;1.70;;
66143;SDS011;52947;50.842;6.084;2023-04-03T12:12:01;3.72;;;1.60;;
66143;SDS011;52947;50.842;6.084;2023-04-03T12:14:51;3.45;;;1.60;;
66143;SDS011;52947;50.842;6.084;2023-04-03T12:17:20;4.22;;;1.80;;
66143;SDS011;52947;50.842;6.084;2023-04-03T12:19:51;8.57;;;1.70;;
66143;SDS011;52947;50.842;6.084;2023-04-03T12:22:20;2.97;;;1.70;;
66143;SDS011;52947;50.842;6.084;2023-04-03T12:24:49;1.48;;;1.30;;
66143;SDS011;52947;50.842;6.084;2023-04-03T12:27:34;2.80;;;1.35;;
66143;SDS011;52947;50.842;6.084;2023-04-03T12:30:13;4.00;;;1.90;;
66143;SDS011;52947;50.842;6.084;2023-04-03T12:33:02;2.15;;;1.48;;
66143;SDS011;52947;50.842;6.084;2023-04-03T12:35:44;5.82;;;1.77;;
66143;SDS011;52947;50.842;6.084;2023-04-03T12:38:37;3.90;;;1.42;;
66143;SDS011;52947;50.842;6.084;2023-04-03T12:41:30;6.00;;;1.75;;
66143;SDS011;52947;50.842;6.084;2023-04-03T12:44:12;3.25;;;1.77;;
66143;SDS011;52947;50.842;6.084;2023-04-03T12:47:01;7.43;;;1.80;;
66143;SDS011;52947;50.842;6.084;2023-04-03T12:49:36;4.70;;;1.60;;
66143;SDS011;52947;50.842;6.084;2023-04-03T12:52:15;4.90;;;1.88;;
66143;SDS011;52947;50.842;6.084;2023-04-03T12:54:47;2.28;;;1.40;;
66143;SDS011;52947;50.842;6.084;2023-04-03T12:57:16;2.47;;;1.55;;
66143;SDS011;52947;50.842;6.084;2023-04-03T12:59:47;5.75;;;2.05;;
66143;SDS011;52947;50.842;6.084;2023-04-03T13:02:17;3.50;;;1.42;;
66143;SDS011;52947;50.842;6.084;2023-04-03T13:04:49;3.35;;;1.60;;
66143;SDS011;52947;50.842;6.084;2023-04-03T13:07:22;2.88;;;1.50;;
66143;SDS011;52947;50.842;6.084;2023-04-03T13:09:57;2.80;;;1.30;;
66143;SDS011;52947;50.842;6.084;2023-04-03T13:12:26;4.57;;;1.17;;
66143;SDS011;52947;50.842;6.084;2023-04-03T13:14:59;2.20;;;1.17;;
66143;SDS011;52947;50.842;6.084;2023-04-03T13:17:30;6.03;;;1.70;;
66143;SDS011;52947;50.842;6.084;2023-04-03T13:20:10;5.57;;;1.70;;
66143;SDS011;52947;50.842;6.084;2023-04-03T13:22:47;2.25;;;1.23;;
66143;SDS011;52947;50.842;6.084;2023-04-03T13:25:17;2.72;;;0.95;;
66143;SDS011;52947;50.842;6.084;2023-04-03T13:27:48;1.77;;;1.30;;
66143;SDS011;52947;50.842;6.084;2023-04-03T13:30:25;1.40;;;1.10;;
66143;SDS011;52947;50.842;6.084;2023-04-03T13:32:57;3.95;;;1.45;;
66143;SDS011;52947;50.842;6.084;2023-04-03T13:35:28;2.95;;;1.35;;
66143;SDS011;52947;50.842;6.084;2023-04-03T13:37:59;2.95;;;1.30;;
66143;SDS011;52947;50.842;6.084;2023-04-03T13:40:28;1.73;;;1.15;;
66143;SDS011;52947;50.842;6.084;2023-04-03T13:43:16;3.72;;;1.38;;
66143;SDS011;52947;50.842;6.084;2023-04-03T13:45:58;4.75;;;1.10;;
66143;SDS011;52947;50.842;6.084;2023-04-03T13:48:35;3.85;;;1.30;;
66143;SDS011;52947;50.842;6.084;2023-04-03T13:51:17;2.22;;;1.10;;
66143;SDS011;52947;50.842;6.084;2023-04-03T13:53:48;7.03;;;1.60;;
66143;SDS011;52947;50.842;6.084;2023-04-03T13:56:20;4.13;;;2.05;;
66143;SDS011;52947;50.842;6.084;2023-04-03T13:58:56;2.85;;;1.30;;
66143;SDS011;52947;50.842;6.084;2023-04-03T14:01:35;5.10;;;1.63;;
66143;SDS011;52947;50.842;6.084;2023-04-03T14:04:13;4.35;;;1.45;;
66143;SDS011;52947;50.842;6.084;2023-04-03T14:06:44;2.55;;;0.95;;
66143;SDS011;52947;50.842;6.084;2023-04-03T14:09:13;3.30;;;1.33;;
66143;SDS011;52947;50.842;6.084;2023-04-03T14:11:43;3.38;;;1.25;;
66143;SDS011;52947;50.842;6.084;2023-04-03T14:14:13;4.68;;;1.08;;
66143;SDS011;52947;50.842;6.084;2023-04-03T14:16:46;2.30;;;1.23;;
66143;SDS011;52947;50.842;6.084;2023-04-03T14:19:20;3.28;;;1.27;;
66143;SDS011;52947;50.842;6.084;2023-04-03T14:21:50;2.28;;;1.00;;
66143;SDS011;52947;50.842;6.084;2023-04-03T14:24:19;3.88;;;1.40;;
66143;SDS011;52947;50.842;6.084;2023-04-03T14:26:47;2.85;;;1.30;;
66143;SDS011;52947;50.842;6.084;2023-04-03T14:29:15;3.58;;;1.23;;
66143;SDS011;52947;50.842;6.084;2023-04-03T14:31:44;5.97;;;1.10;;
66143;SDS011;52947;50.842;6.084;2023-04-03T14:34:25;3.47;;;1.60;;
66143;SDS011;52947;50.842;6.084;2023-04-03T14:36:53;3.83;;;1.20;;
66143;SDS011;52947;50.842;6.084;2023-04-03T14:39:21;0.82;;;0.80;;
66143;SDS011;52947;50.842;6.084;2023-04-03T14:41:49;1.77;;;1.13;;
66143;SDS011;52947;50.842;6.084;2023-04-03T14:44:17;2.35;;;1.00;;
66143;SDS011;52947;50.842;6.084;2023-04-03T14:46:46;4.50;;;1.10;;
66143;SDS011;52947;50.842;6.084;2023-04-03T14:49:24;1.92;;;1.15;;
66143;SDS011;52947;50.842;6.084;2023-04-03T14:51:54;2.40;;;1.30;;
66143;SDS011;52947;50.842;6.084;2023-04-03T14:54:23;2.70;;;0.95;;
66143;SDS011;52947;50.842;6.084;2023-04-03T14:56:54;1.45;;;0.90;;
66143;SDS011;52947;50.842;6.084;2023-04-03T14:59:24;5.28;;;1.60;;
66143;SDS011;52947;50.842;6.084;2023-04-03T15:01:54;3.15;;;1.10;;
66143;SDS011;52947;50.842;6.084;2023-04-03T15:06:49;2.25;;;1.00;;
66143;SDS011;52947;50.842;6.084;2023-04-03T15:11:47;3.23;;;1.20;;
66143;SDS011;52947;50.842;6.084;2023-04-03T15:14:16;5.85;;;1.50;;
66143;SDS011;52947;50.842;6.084;2023-04-03T15:17:03;1.65;;;1.00;;
66143;SDS011;52947;50.842;6.084;2023-04-03T15:19:32;2.40;;;1.40;;
66143;SDS011;52947;50.842;6.084;2023-04-03T15:22:04;1.83;;;1.00;;
66143;SDS011;52947;50.842;6.084;2023-04-03T15:24:32;6.15;;;1.20;;
66143;SDS011;52947;50.842;6.084;2023-04-03T15:27:00;2.60;;;1.10;;
66143;SDS011;52947;50.842;6.084;2023-04-03T15:29:28;7.43;;;1.23;;
66143;SDS011;52947;50.842;6.084;2023-04-03T15:31:56;2.15;;;1.20;;
66143;SDS011;52947;50.842;6.084;2023-04-03T15:34:26;1.55;;;0.88;;
66143;SDS011;52947;50.842;6.084;2023-04-03T15:36:53;2.22;;;1.10;;
66143;SDS011;52947;50.842;6.084;2023-04-03T15:39:21;1.83;;;1.20;;
66143;SDS011;52947;50.842;6.084;2023-04-03T15:41:50;4.10;;;1.27;;
66143;SDS011;52947;50.842;6.084;2023-04-03T15:44:18;2.07;;;1.20;;
66143;SDS011;52947;50.842;6.084;2023-04-03T15:46:47;3.47;;;1.08;;